Time;durP1;ratioP1;P1;durP2;ratioP2;P2;SDS_P1;SDS_P2;PMS_P1;PMS_P2;Temp;Humidity;BMP_temperature;BMP_pressure;BME280_temperature;BME280_humidity;BME280_pressure;Samples;Min_cycle;Max_cycle;Signal;HPM_P1;HPM_P2
2022/09/20 00:00:29;;;;;;;9.18;1.90;;;9.40;99.90;;;;;;5074796;28;20435;-52
2022/09/20 00:02:55;;;;;;;8.80;1.60;;;9.40;99.90;;;;;;5065820;28;20048;-49
2022/09/20 00:05:21;;;;;;;7.82;1.92;;;9.30;99.90;;;;;;5073029;28;20047;-50
2022/09/20 00:07:47;;;;;;;13.73;2.42;;;9.40;99.90;;;;;;5074108;28;20048;-50
2022/09/20 00:10:13;;;;;;;8.43;2.08;;;9.30;99.90;;;;;;5070079;28;20067;-52
2022/09/20 00:12:40;;;;;;;13.35;2.40;;;9.30;99.90;;;;;;5070559;28;20044;-52
2022/09/20 00:15:06;;;;;;;5.28;1.65;;;9.30;99.90;;;;;;5090946;28;20078;-49
2022/09/20 00:17:32;;;;;;;7.40;1.60;;;9.20;99.90;;;;;;5099614;27;20051;-53
2022/09/20 00:19:58;;;;;;;6.93;1.33;;;9.20;99.90;;;;;;5097119;28;20276;-53
2022/09/20 00:22:26;;;;;;;8.07;1.70;;;9.10;99.90;;;;;;5097555;28;20039;-52
2022/09/20 00:24:52;;;;;;;8.48;2.08;;;9.20;99.90;;;;;;5102641;28;20082;-53
2022/09/20 00:27:18;;;;;;;7.93;1.83;;;9.10;99.90;;;;;;5094830;28;20491;-53
2022/09/20 00:29:44;;;;;;;7.40;1.48;;;9.00;99.90;;;;;;5078774;28;20043;-53
2022/09/20 00:32:10;;;;;;;11.18;3.33;;;9.00;99.90;;;;;;5075444;28;20053;-53
2022/09/20 00:37:22;;;;;;;6.65;2.30;;;9.00;99.90;;;;;;5095343;28;20047;-39
2022/09/20 00:39:48;;;;;;;8.52;1.67;;;8.90;99.90;;;;;;5078442;28;20148;-39
2022/09/20 00:42:14;;;;;;;10.77;1.75;;;8.80;99.90;;;;;;5096589;28;20084;-38
2022/09/20 00:44:55;;;;;;;5.07;1.58;;;8.70;99.90;;;;;;5070583;28;20062;-39
2022/09/20 00:48:05;;;;;;;7.00;2.08;;;8.60;99.90;;;;;;5102514;28;20490;-38
2022/09/20 00:50:42;;;;;;;6.90;2.05;;;8.60;99.90;;;;;;5080193;28;20135;-39
2022/09/20 00:53:13;;;;;;;13.27;1.98;;;8.60;99.90;;;;;;5097679;27;20043;-39
2022/09/20 00:55:44;;;;;;;7.32;2.70;;;8.50;99.90;;;;;;5098739;28;20391;-39
2022/09/20 00:58:11;;;;;;;8.75;2.10;;;8.50;99.90;;;;;;5098090;28;20078;-38
2022/09/20 01:00:38;;;;;;;6.68;1.95;;;8.50;99.90;;;;;;5082699;28;20129;-39
2022/09/20 01:03:09;;;;;;;11.25;2.72;;;8.50;99.90;;;;;;5092694;28;20699;-39
2022/09/20 01:05:38;;;;;;;7.97;1.63;;;8.50;99.90;;;;;;5101497;28;20039;-38
2022/09/20 01:08:05;;;;;;;7.63;1.60;;;8.40;99.90;;;;;;5100889;28;20047;-39
2022/09/20 01:10:32;;;;;;;8.25;1.98;;;8.40;99.90;;;;;;5084506;28;20050;-39
2022/09/20 01:12:58;;;;;;;6.65;2.05;;;8.40;99.90;;;;;;5098316;28;20693;-39
2022/09/20 01:15:26;;;;;;;8.60;1.60;;;8.40;99.90;;;;;;5098594;27;20100;-39
2022/09/20 01:17:56;;;;;;;6.72;1.77;;;8.30;99.90;;;;;;5097702;28;20507;-39
2022/09/20 01:20:29;;;;;;;12.82;2.45;;;8.30;99.90;;;;;;5099637;28;20124;-38
2022/09/20 01:23:18;;;;;;;7.78;1.90;;;8.30;99.90;;;;;;5099342;28;20051;-38
2022/09/20 01:26:06;;;;;;;8.02;1.65;;;8.20;99.90;;;;;;5078002;28;20539;-38
2022/09/20 01:28:34;;;;;;;9.18;1.85;;;8.30;99.90;;;;;;5091921;28;20494;-38
2022/09/20 01:31:21;;;;;;;8.90;2.00;;;8.30;99.90;;;;;;5097944;28;20065;-39
2022/09/20 01:34:00;;;;;;;6.25;1.50;;;8.30;99.90;;;;;;5096339;27;20061;-39
2022/09/20 01:36:33;;;;;;;7.60;2.00;;;8.30;99.90;;;;;;5098520;28;20516;-39
2022/09/20 01:39:17;;;;;;;12.05;1.95;;;8.20;99.90;;;;;;5098701;28;20047;-39
2022/09/20 01:42:07;;;;;;;11.77;2.17;;;8.40;99.90;;;;;;5098923;28;20377;-50
2022/09/20 01:45:00;;;;;;;9.90;1.80;;;8.30;99.90;;;;;;5096842;27;20128;-51
2022/09/20 01:48:05;;;;;;;7.68;1.92;;;8.50;99.90;;;;;;5094491;28;20487;-50
2022/09/20 01:51:10;;;;;;;10.40;1.85;;;8.50;99.90;;;;;;5061557;28;20187;-38
2022/09/20 01:53:39;;;;;;;11.00;2.05;;;8.60;99.90;;;;;;5095493;28;20039;-38
2022/09/20 01:56:23;;;;;;;8.77;1.88;;;8.60;99.90;;;;;;5098391;27;20089;-39
2022/09/20 01:59:17;;;;;;;8.77;2.17;;;8.60;99.90;;;;;;5078588;28;20043;-38
2022/09/20 02:01:53;;;;;;;12.35;2.03;;;8.60;99.90;;;;;;5099519;28;20055;-52
2022/09/20 02:04:56;;;;;;;10.55;2.53;;;8.70;99.90;;;;;;5092463;27;20937;-51
2022/09/20 02:07:47;;;;;;;9.60;2.67;;;8.70;99.90;;;;;;5097836;28;20040;-38
2022/09/20 02:10:28;;;;;;;7.03;1.92;;;8.70;99.90;;;;;;5093555;27;20048;-52
2022/09/20 02:12:59;;;;;;;10.57;2.00;;;8.80;99.90;;;;;;5093847;28;20236;-48
2022/09/20 02:15:53;;;;;;;11.25;2.03;;;8.70;99.90;;;;;;5094818;27;20135;-52
2022/09/20 02:18:46;;;;;;;6.63;1.77;;;8.70;99.90;;;;;;5091570;27;20075;-53
2022/09/20 02:21:37;;;;;;;6.97;2.08;;;8.70;99.90;;;;;;5091869;28;20055;-51
2022/09/20 02:24:34;;;;;;;8.02;1.95;;;8.70;99.90;;;;;;5100255;28;20844;-49
2022/09/20 02:27:39;;;;;;;5.47;2.10;;;8.60;99.90;;;;;;5081677;28;20051;-50
2022/09/20 02:30:13;;;;;;;8.32;2.00;;;8.50;99.90;;;;;;5098640;28;20135;-52
2022/09/20 02:33:22;;;;;;;8.88;2.78;;;8.50;99.90;;;;;;5100600;27;20047;-51
2022/09/20 02:36:07;;;;;;;8.77;2.22;;;8.40;99.90;;;;;;5049163;28;20356;-51
2022/09/20 02:39:01;;;;;;;6.10;1.45;;;8.30;99.90;;;;;;5092948;28;20122;-49
2022/09/20 02:41:48;;;;;;;8.40;1.65;;;8.30;99.90;;;;;;5095468;28;20040;-50
2022/09/20 02:44:43;;;;;;;9.32;1.80;;;8.20;99.90;;;;;;5061253;28;20051;-53
2022/09/20 02:47:33;;;;;;;7.10;1.85;;;8.10;99.90;;;;;;5105754;27;20047;-39
2022/09/20 02:50:13;;;;;;;6.13;1.50;;;8.10;99.90;;;;;;5098703;28;20360;-40
2022/09/20 02:52:53;;;;;;;6.70;1.58;;;8.00;99.90;;;;;;5097461;28;20040;-38
2022/09/20 02:55:25;;;;;;;6.85;1.55;;;8.00;99.90;;;;;;5096018;28;20052;-38
2022/09/20 02:58:09;;;;;;;;;;;7.90;99.90;;;;;;5097512;28;20039;-38
2022/09/20 03:00:47;;;;;;;7.93;2.00;;;7.90;99.90;;;;;;5100196;28;19923;-38
2022/09/20 03:03:44;;;;;;;5.70;1.80;;;7.80;99.90;;;;;;5044892;28;20921;-38
2022/09/20 03:06:21;;;;;;;7.68;2.00;;;7.80;99.90;;;;;;5095199;28;20043;-37
2022/09/20 03:09:12;;;;;;;8.63;1.90;;;7.80;99.90;;;;;;5112253;27;20039;-52
2022/09/20 03:12:11;;;;;;;7.15;1.90;;;7.70;99.90;;;;;;5062759;28;20407;-52
2022/09/20 03:15:00;;;;;;;7.47;1.80;;;7.70;99.90;;;;;;5076714;28;20584;-50
2022/09/20 03:17:51;;;;;;;6.93;1.80;;;7.70;99.90;;;;;;5084723;28;20424;-52
2022/09/20 03:20:35;;;;;;;6.15;1.60;;;7.60;99.90;;;;;;5092525;27;20150;-51
2022/09/20 03:23:29;;;;;;;3.95;1.60;;;7.50;99.90;;;;;;5099277;27;20069;-50
2022/09/20 03:26:04;;;;;;;6.15;1.40;;;7.50;99.90;;;;;;5099826;27;20125;-53
2022/09/20 03:28:36;;;;;;;8.00;1.60;;;7.50;99.90;;;;;;5098196;27;20054;-50
2022/09/20 03:31:33;;;;;;;6.90;2.20;;;7.50;99.90;;;;;;5098417;28;20044;-52
2022/09/20 03:34:11;;;;;;;6.88;1.85;;;7.50;99.90;;;;;;5095789;28;20054;-38
2022/09/20 03:36:53;;;;;;;8.88;1.80;;;7.50;99.90;;;;;;5096478;28;20043;-38
2022/09/20 03:39:22;;;;;;;;;;;7.50;99.90;;;;;;5095661;28;20048;-38
2022/09/20 03:42:17;;;;;;;4.78;1.70;;;7.60;99.90;;;;;;5097341;28;20109;-52
2022/09/20 03:44:53;;;;;;;4.47;1.60;;;7.60;99.90;;;;;;5046619;28;20551;-53
2022/09/20 03:47:38;;;;;;;7.38;1.65;;;7.60;99.90;;;;;;5098314;28;20058;-49
2022/09/20 03:50:19;;;;;;;10.13;2.25;;;7.70;99.90;;;;;;5061692;28;20039;-49
2022/09/20 03:53:33;;;;;;;5.28;1.80;;;7.70;99.90;;;;;;5095452;28;20058;-50
2022/09/20 03:56:08;;;;;;;8.15;2.42;;;7.80;99.90;;;;;;5014045;28;20048;-38
2022/09/20 03:59:04;;;;;;;9.27;1.90;;;7.90;99.90;;;;;;5097405;27;20685;-37
2022/09/20 04:02:01;;;;;;;7.63;2.45;;;8.00;99.90;;;;;;5072659;28;20506;-39
2022/09/20 04:04:33;;;;;;;7.43;2.30;;;8.20;99.90;;;;;;5093476;28;20076;-39
2022/09/20 04:07:18;;;;;;;8.65;2.38;;;8.30;99.90;;;;;;5081842;28;20041;-39
2022/09/20 04:10:06;;;;;;;8.68;2.60;;;8.50;99.90;;;;;;5096701;28;20498;-40
2022/09/20 04:13:11;;;;;;;11.45;2.60;;;8.60;99.90;;;;;;5078074;28;20043;-39
2022/09/20 04:16:03;;;;;;;6.45;2.00;;;8.70;99.90;;;;;;5094420;28;20056;-38
2022/09/20 04:18:49;;;;;;;;;;;8.80;99.90;;;;;;5113932;27;20469;-39
2022/09/20 04:21:27;;;;;;;7.32;2.20;;;8.90;99.90;;;;;;5081632;28;19979;-38
2022/09/20 04:23:53;;;;;;;9.48;2.20;;;8.90;99.90;;;;;;5097515;28;20127;-38
2022/09/20 04:26:27;;;;;;;7.15;2.25;;;9.00;99.90;;;;;;5077676;28;20039;-39
2022/09/20 04:28:58;;;;;;;8.45;2.50;;;9.10;99.90;;;;;;5097742;28;20146;-40
2022/09/20 04:31:51;;;;;;;7.50;2.08;;;9.10;99.90;;;;;;5096507;28;20050;-39
2022/09/20 04:37:33;;;;;;;8.27;1.95;;;9.20;99.90;;;;;;5100277;28;20127;-39
2022/09/20 04:40:24;;;;;;;7.28;2.13;;;9.20;99.90;;;;;;5058463;28;20040;-39
2022/09/20 04:43:09;;;;;;;10.57;2.25;;;9.30;99.90;;;;;;5097809;28;20449;-38
2022/09/20 04:45:54;;;;;;;7.00;2.22;;;9.30;99.90;;;;;;5092852;28;20035;-38
2022/09/20 04:48:35;;;;;;;12.48;2.10;;;9.40;99.90;;;;;;5097972;28;20483;-51
2022/09/20 04:51:13;;;;;;;11.85;2.60;;;9.40;99.90;;;;;;5095178;28;20048;-44
2022/09/20 04:54:17;;;;;;;6.38;2.00;;;9.50;99.90;;;;;;5098040;28;20039;-39
2022/09/20 04:57:10;;;;;;;6.90;1.92;;;9.60;99.90;;;;;;5096747;28;20123;-38
2022/09/20 05:00:17;;;;;;;4.70;1.50;;;9.60;99.90;;;;;;5087107;28;20684;-38
2022/09/20 05:03:02;;;;;;;9.52;1.60;;;9.60;99.90;;;;;;5033719;28;20536;-39
2022/09/20 05:06:03;;;;;;;4.60;1.67;;;9.60;99.90;;;;;;5032541;28;20055;-39
2022/09/20 05:09:06;;;;;;;5.88;1.92;;;9.50;99.90;;;;;;5089036;28;20047;-38
2022/09/20 05:11:54;;;;;;;8.40;2.10;;;9.50;99.90;;;;;;5119522;27;20058;-38
2022/09/20 05:14:30;;;;;;;8.05;1.88;;;9.50;99.90;;;;;;5103180;28;20094;-53
2022/09/20 05:17:18;;;;;;;7.70;2.08;;;9.60;99.90;;;;;;5105037;28;20525;-52
2022/09/20 05:20:26;;;;;;;2.38;1.45;;;9.60;99.90;;;;;;5100831;28;20747;-51
2022/09/20 05:22:52;;;;;;;6.35;1.63;;;9.60;99.90;;;;;;5097618;28;20079;-52
2022/09/20 05:25:39;;;;;;;8.30;1.80;;;9.50;99.90;;;;;;5093123;28;20507;-53
2022/09/20 05:28:13;;;;;;;4.35;1.88;;;9.50;99.90;;;;;;5093696;28;20051;-49
2022/09/20 05:30:48;;;;;;;6.47;1.55;;;9.50;99.90;;;;;;5092591;28;20666;-49
2022/09/20 05:34:05;;;;;;;5.25;2.00;;;9.50;99.90;;;;;;5100138;28;20452;-50
2022/09/20 05:36:51;;;;;;;8.07;1.70;;;9.40;99.90;;;;;;5067812;28;20051;-53
2022/09/20 05:39:26;;;;;;;6.90;1.80;;;9.40;99.90;;;;;;5111322;27;20109;-50
2022/09/20 05:42:27;;;;;;;5.43;1.90;;;9.40;99.90;;;;;;5093641;28;20460;-52
2022/09/20 05:45:16;;;;;;;7.70;1.80;;;9.60;99.90;;;;;;5067880;27;20043;-50
2022/09/20 05:48:31;;;;;;;8.65;2.03;;;9.50;99.90;;;;;;5094538;28;20044;-50
2022/09/20 05:51:06;;;;;;;4.80;1.65;;;9.60;99.90;;;;;;5028182;28;20039;-54
2022/09/20 05:53:54;;;;;;;5.85;2.35;;;9.60;99.90;;;;;;5099584;27;20031;-52
2022/09/20 05:56:38;;;;;;;6.45;2.17;;;9.60;99.90;;;;;;5096672;28;20048;-53
2022/09/20 05:59:25;;;;;;;7.97;2.47;;;9.70;99.90;;;;;;5094741;28;20513;-52
2022/09/20 06:02:15;;;;;;;8.00;2.30;;;9.70;99.90;;;;;;5098240;28;20128;-40
2022/09/20 06:05:00;;;;;;;8.55;2.20;;;9.80;99.90;;;;;;5095594;28;20047;-40
2022/09/20 06:07:29;;;;;;;5.10;1.98;;;9.80;99.90;;;;;;5115947;27;20048;-40
2022/09/20 06:10:32;;;;;;;6.88;1.65;;;9.90;99.90;;;;;;5078873;28;20126;-40
2022/09/20 06:13:23;;;;;;;5.47;1.63;;;10.00;99.90;;;;;;5090791;27;20062;-40
2022/09/20 06:15:56;;;;;;;8.88;1.50;;;10.00;99.90;;;;;;5092395;28;20161;-39
2022/09/20 06:18:35;;;;;;;6.45;1.58;;;10.20;99.90;;;;;;5075962;28;20055;-39
2022/09/20 06:21:40;;;;;;;8.93;2.00;;;10.30;99.90;;;;;;5093898;28;20388;-53
2022/09/20 06:24:23;;;;;;;5.20;1.40;;;10.30;99.90;;;;;;5111049;27;20055;-53
2022/09/20 06:26:53;;;;;;;5.32;1.50;;;10.40;99.90;;;;;;5093548;28;20064;-40
2022/09/20 06:29:32;;;;;;;5.35;1.70;;;10.50;99.90;;;;;;5093580;28;20402;-50
2022/09/20 06:31:58;;;;;;;3.63;1.30;;;10.60;99.90;;;;;;5093795;27;20138;-53
2022/09/20 06:34:26;;;;;;;7.53;1.80;;;10.70;99.90;;;;;;5096418;28;20054;-52
2022/09/20 06:43:13;;;;;;;6.75;2.13;;;10.80;99.90;;;;;;5095381;28;20135;-52
2022/09/20 06:45:41;;;;;;;6.63;1.88;;;10.80;99.90;;;;;;5073938;28;20357;-51
2022/09/20 06:48:11;;;;;;;7.57;2.25;;;10.80;99.90;;;;;;5091161;27;20655;-38
2022/09/20 06:50:38;;;;;;;5.25;1.75;;;10.80;99.90;;;;;;5088941;28;20039;-53
2022/09/20 06:53:06;;;;;;;5.40;1.90;;;10.80;99.90;;;;;;5094938;28;20423;-50
2022/09/20 06:55:38;;;;;;;5.80;1.90;;;10.80;99.90;;;;;;5089516;27;20048;-52
2022/09/20 06:58:04;;;;;;;5.65;2.05;;;10.90;99.90;;;;;;5093801;28;20050;-51
2022/09/20 07:00:31;;;;;;;7.07;2.20;;;10.90;99.90;;;;;;5058434;28;20100;-49
2022/09/20 07:02:57;;;;;;;7.53;2.17;;;11.00;99.90;;;;;;5091237;28;20035;-49
2022/09/20 07:05:23;;;;;;;7.32;2.08;;;11.10;99.90;;;;;;5076362;28;20043;-39
2022/09/20 07:07:49;;;;;;;8.27;2.28;;;11.30;99.90;;;;;;5076547;28;20096;-38
2022/09/20 07:10:15;;;;;;;6.63;1.73;;;11.40;99.90;;;;;;5071821;28;20040;-49
2022/09/20 07:12:41;;;;;;;7.43;1.90;;;11.40;99.90;;;;;;5093216;28;20051;-52
2022/09/20 07:15:08;;;;;;;9.15;1.88;;;11.50;99.90;;;;;;5090953;28;20212;-53
2022/09/20 07:17:34;;;;;;;4.90;1.52;;;11.80;99.90;;;;;;5090643;28;20043;-50
2022/09/20 07:20:01;;;;;;;5.45;1.58;;;12.20;99.90;;;;;;5091383;28;20097;-51
2022/09/20 07:22:27;;;;;;;6.47;1.70;;;12.60;99.90;;;;;;5089826;28;20047;-52
2022/09/20 07:24:54;;;;;;;5.80;1.52;;;13.20;99.90;;;;;;5092489;27;20112;-58
2022/09/20 07:27:20;;;;;;;6.57;1.48;;;13.60;99.90;;;;;;5097569;28;20082;-40
2022/09/20 07:29:46;;;;;;;6.78;1.30;;;14.00;99.90;;;;;;5095908;28;20411;-40
2022/09/20 07:32:14;;;;;;;5.07;1.33;;;14.20;99.90;;;;;;5079827;28;20085;-42
2022/09/20 07:34:40;;;;;;;4.10;1.00;;;14.30;99.90;;;;;;5091749;28;20047;-40
2022/09/20 07:37:06;;;;;;;5.97;1.67;;;14.10;99.90;;;;;;5077415;28;20350;-40
2022/09/20 07:39:32;;;;;;;6.03;1.23;;;13.90;99.90;;;;;;5089469;27;20112;-39
2022/09/20 07:42:00;;;;;;;5.75;1.38;;;13.80;99.90;;;;;;5095392;28;20547;-39
2022/09/20 07:44:26;;;;;;;4.82;1.45;;;13.70;99.90;;;;;;5093782;27;20067;-40
2022/09/20 07:46:56;;;;;;;7.35;1.60;;;13.60;99.90;;;;;;5092497;27;20051;-53
2022/09/20 07:49:22;;;;;;;4.20;1.45;;;13.50;99.90;;;;;;5093707;28;20043;-54
2022/09/20 07:51:49;;;;;;;4.75;1.52;;;13.50;99.90;;;;;;5089081;28;20520;-50
2022/09/20 07:54:16;;;;;;;5.75;1.60;;;13.40;99.90;;;;;;5094163;28;20043;-52
2022/09/20 07:56:43;;;;;;;7.40;2.03;;;13.50;99.90;;;;;;5089896;28;20147;-39
2022/09/20 07:59:10;;;;;;;8.00;1.67;;;13.60;99.90;;;;;;5096961;27;20047;-40
2022/09/20 08:01:37;;;;;;;7.97;2.47;;;13.60;99.90;;;;;;5092354;28;20052;-39
2022/09/20 08:04:05;;;;;;;7.35;2.03;;;13.70;99.90;;;;;;5091918;28;20513;-53
2022/09/20 08:06:34;;;;;;;7.20;1.98;;;13.70;99.90;;;;;;5093545;27;20085;-53
2022/09/20 08:09:00;;;;;;;5.88;1.98;;;13.80;99.90;;;;;;5091598;28;20043;-50
2022/09/20 08:11:28;;;;;;;6.95;1.83;;;13.90;99.90;;;;;;5093205;28;20422;-51
2022/09/20 08:13:56;;;;;;;3.75;1.35;;;14.00;99.90;;;;;;5095686;28;20051;-52
2022/09/20 08:16:22;;;;;;;7.32;1.52;;;14.30;99.90;;;;;;5091557;28;20051;-52
2022/09/20 08:18:57;;;;;;;7.03;1.33;;;14.60;99.90;;;;;;5056846;28;20051;-50
2022/09/20 08:21:25;;;;;;;6.28;1.35;;;14.90;99.90;;;;;;5077155;28;20051;-52
2022/09/20 08:23:52;;;;;;;7.75;1.60;;;15.10;99.90;;;;;;5092331;28;20096;-52
2022/09/20 08:26:21;;;;;;;5.72;1.40;;;15.30;99.90;;;;;;5092091;28;20044;-39
2022/09/20 08:28:51;;;;;;;4.90;1.00;;;15.40;99.90;;;;;;5090587;28;20043;-42
2022/09/20 08:31:19;;;;;;;7.47;1.33;;;15.40;99.90;;;;;;5093896;28;20512;-40
2022/09/20 08:33:47;;;;;;;5.72;1.00;;;15.60;99.90;;;;;;5093953;28;20554;-41
2022/09/20 08:36:18;;;;;;;3.13;0.98;;;15.80;99.90;;;;;;5095450;28;20043;-40
2022/09/20 08:38:45;;;;;;;6.57;1.30;;;15.80;99.90;;;;;;5089858;28;20568;-40
2022/09/20 08:41:25;;;;;;;4.53;1.48;;;15.90;99.90;;;;;;5092345;28;20051;-41
2022/09/20 08:43:56;;;;;;;5.57;1.20;;;16.00;99.90;;;;;;5095124;28;20036;-40
2022/09/20 08:46:27;;;;;;;5.38;1.00;;;16.10;99.90;;;;;;5092429;28;20127;-40
2022/09/20 08:48:54;;;;;;;8.40;2.03;;;16.40;99.90;;;;;;5088089;28;20476;-40
2022/09/20 08:51:22;;;;;;;6.57;1.90;;;16.90;99.90;;;;;;5093201;28;20059;-42
2022/09/20 08:53:54;;;;;;;6.53;2.83;;;17.80;99.90;;;;;;5092446;28;20486;-43
2022/09/20 08:56:21;;;;;;;5.93;1.83;;;18.50;99.90;;;;;;5094744;28;20035;-44
2022/09/20 08:58:48;;;;;;;8.13;1.38;;;19.10;99.90;;;;;;5093685;28;20078;-43
2022/09/20 09:01:21;;;;;;;5.28;1.15;;;19.30;99.90;;;;;;5092535;28;20421;-42
2022/09/20 09:03:51;;;;;;;6.00;1.27;;;19.90;99.90;;;;;;5095099;28;20048;-41
2022/09/20 09:06:20;;;;;;;4.18;1.00;;;20.70;99.90;;;;;;5112594;27;20040;-42
2022/09/20 09:08:50;;;;;;;5.47;1.02;;;20.90;99.90;;;;;;5064188;28;20584;-42
2022/09/20 09:11:19;;;;;;;4.27;1.03;;;21.50;99.90;;;;;;5097446;28;20054;-41
2022/09/20 09:16:55;;;;;;;5.15;1.20;;;21.30;99.90;;;;;;5094077;28;20566;-52
2022/09/20 09:19:46;;;;;;;7.15;1.30;;;21.60;99.90;;;;;;5094600;28;20043;-54
2022/09/20 09:22:23;;;;;;;7.00;3.30;;;21.60;98.80;;;;;;5090672;27;20067;-52
2022/09/20 09:25:05;;;;;;;6.57;2.50;;;22.10;99.90;;;;;;5096779;27;20044;-43
2022/09/20 09:27:32;;;;;;;6.15;0.98;;;22.80;96.00;;;;;;5080526;28;20554;-42
2022/09/20 09:29:58;;;;;;;2.75;0.63;;;23.00;98.00;;;;;;5074687;28;20042;-47
2022/09/20 09:32:28;;;;;;;6.55;1.20;;;23.10;99.90;;;;;;5109589;27;20402;-42
2022/09/20 09:34:56;;;;;;;3.95;0.75;;;22.90;98.10;;;;;;5109273;27;20557;-47
2022/09/20 09:37:30;;;;;;;5.68;2.17;;;23.10;98.80;;;;;;5095979;27;20269;-42
2022/09/20 09:40:08;;;;;;;5.25;1.75;;;23.20;91.30;;;;;;5092110;27;20044;-45
2022/09/20 09:42:35;;;;;;;7.50;4.90;;;23.70;89.90;;;;;;5096939;28;20382;-44
2022/09/20 09:45:26;;;;;;;5.80;2.08;;;23.90;96.40;;;;;;5093235;28;20044;-43
2022/09/20 09:47:55;;;;;;;6.82;3.35;;;24.40;78.00;;;;;;5097327;28;20559;-55
2022/09/20 09:50:25;;;;;;;13.15;7.60;;;24.80;91.80;;;;;;5096485;28;20039;-53
2022/09/20 09:53:08;;;;;;;11.07;7.60;;;24.80;81.40;;;;;;5097159;28;20079;-41
2022/09/20 09:55:39;;;;;;;3.30;0.80;;;25.00;66.80;;;;;;5096835;28;20089;-41
2022/09/20 09:58:25;;;;;;;5.60;1.90;;;24.60;65.30;;;;;;5096868;28;20044;-42
2022/09/20 10:00:52;;;;;;;4.47;1.63;;;24.90;73.60;;;;;;5083028;28;20039;-43
2022/09/20 10:03:24;;;;;;;5.40;2.25;;;25.30;72.10;;;;;;5098589;28;20047;-42
2022/09/20 10:06:28;;;;;;;5.82;0.90;;;25.50;63.50;;;;;;5079247;28;20078;-43
2022/09/20 10:09:04;;;;;;;5.97;2.25;;;25.40;61.60;;;;;;5076033;27;20173;-43
2022/09/20 10:12:02;;;;;;;4.88;1.33;;;25.40;61.20;;;;;;5090420;28;20052;-45
2022/09/20 10:14:53;;;;;;;3.53;1.27;;;24.90;57.30;;;;;;5094008;28;20091;-48
2022/09/20 10:17:41;;;;;;;4.78;0.80;;;24.50;63.50;;;;;;5091706;28;20048;-43
2022/09/20 10:20:27;;;;;;;6.60;2.08;;;23.80;61.00;;;;;;5089047;28;20128;-44
2022/09/20 10:23:21;;;;;;;3.55;1.02;;;23.00;74.80;;;;;;5092999;28;20043;-42
2022/09/20 10:26:04;;;;;;;5.50;1.23;;;22.30;73.00;;;;;;5095496;28;20094;-47
2022/09/20 10:28:49;;;;;;;6.00;0.93;;;21.30;90.60;;;;;;5093581;28;20482;-47
2022/09/20 10:31:44;;;;;;;4.85;1.05;;;20.30;96.00;;;;;;5093657;28;20435;-53
2022/09/20 10:34:19;;;;;;;4.50;1.30;;;19.50;99.90;;;;;;5074585;28;20151;-43
2022/09/20 10:36:52;;;;;;;4.35;1.00;;;18.40;99.90;;;;;;5054356;28;20102;-53
2022/09/20 10:39:35;;;;;;;2.58;0.68;;;17.70;99.90;;;;;;5095860;28;20248;-54
2022/09/20 10:45:23;;;;;;;4.70;0.85;;;16.80;99.90;;;;;;5093491;28;20138;-54
2022/09/20 10:47:57;;;;;;;3.10;0.70;;;16.40;99.90;;;;;;5095176;28;20039;-53
2022/09/20 10:50:35;;;;;;;4.10;0.85;;;16.10;99.90;;;;;;5093229;28;20464;-53
2022/09/20 10:53:38;;;;;;;3.60;0.60;;;16.10;99.90;;;;;;5094475;28;20287;-52
2022/09/20 10:56:26;;;;;;;5.53;1.80;;;16.00;99.90;;;;;;5074987;28;20520;-49
2022/09/20 10:59:01;;;;;;;3.60;1.38;;;16.10;99.90;;;;;;5093259;28;20047;-48
2022/09/20 11:01:41;;;;;;;4.05;0.90;;;16.20;99.90;;;;;;5089747;28;20043;-49
2022/09/20 11:04:25;;;;;;;6.03;0.93;;;16.30;99.90;;;;;;5089690;28;20051;-52
2022/09/20 11:07:13;;;;;;;3.28;1.00;;;16.30;99.90;;;;;;5093152;28;20044;-51
2022/09/20 11:09:45;;;;;;;8.48;4.50;;;16.40;99.90;;;;;;5095223;28;20047;-50
2022/09/20 11:12:22;;;;;;;6.63;2.05;;;16.60;99.90;;;;;;5095858;28;20081;-49
2022/09/20 11:15:01;;;;;;;2.95;0.82;;;16.60;99.90;;;;;;5093838;28;20051;-49
2022/09/20 11:17:44;;;;;;;3.22;0.60;;;16.80;99.90;;;;;;5110882;27;20449;-49
2022/09/20 11:20:33;;;;;;;3.03;0.60;;;16.80;99.90;;;;;;5074978;28;20103;-51
2022/09/20 11:23:24;;;;;;;3.08;0.50;;;17.10;99.90;;;;;;5059307;28;20051;-50
2022/09/20 11:26:01;;;;;;;4.15;0.88;;;17.30;99.90;;;;;;5092993;28;20055;-43
2022/09/20 11:28:45;;;;;;;3.28;0.80;;;17.60;99.90;;;;;;5096463;28;20047;-43
2022/09/20 11:31:40;;;;;;;3.28;0.80;;;17.70;99.90;;;;;;5090893;28;20046;-43
2022/09/20 11:34:30;;;;;;;5.22;0.88;;;17.90;99.90;;;;;;5097309;28;20043;-46
2022/09/20 11:37:02;;;;;;;4.47;0.82;;;18.20;99.90;;;;;;5093893;28;20438;-48
2022/09/20 11:39:33;;;;;;;5.53;1.60;;;18.60;99.90;;;;;;5097017;28;20046;-50
2022/09/20 11:42:02;;;;;;;4.60;1.08;;;18.90;99.90;;;;;;5095313;28;20051;-52
2022/09/20 11:44:29;;;;;;;3.17;0.90;;;19.10;99.90;;;;;;5078168;28;20112;-42
2022/09/20 11:47:15;;;;;;;3.42;0.90;;;19.70;99.90;;;;;;5098574;28;20457;-44
2022/09/20 11:50:31;;;;;;;3.85;0.85;;;20.60;99.90;;;;;;5095944;28;20035;-43
2022/09/20 11:53:19;;;;;;;3.92;1.05;;;22.00;99.90;;;;;;5093076;28;20208;-41
2022/09/20 11:56:00;;;;;;;5.45;0.85;;;22.90;98.70;;;;;;5075911;28;20074;-45
2022/09/20 11:58:27;;;;;;;6.80;1.02;;;23.80;93.70;;;;;;5095133;28;20051;-45
2022/09/20 12:00:57;;;;;;;5.03;1.38;;;24.00;92.90;;;;;;5096072;28;20402;-45
2022/09/20 12:03:36;;;;;;;3.80;0.93;;;24.80;91.20;;;;;;5096703;28;20644;-44
2022/09/20 12:06:24;;;;;;;6.50;1.67;;;24.60;81.30;;;;;;5096509;28;20044;-43
2022/09/20 12:08:51;;;;;;;8.73;4.65;;;24.70;85.20;;;;;;5088796;28;20048;-44
2022/09/20 12:11:28;;;;;;;4.50;1.17;;;25.30;85.10;;;;;;5093162;28;20142;-46
2022/09/20 12:14:04;;;;;;;10.52;6.45;;;25.60;77.30;;;;;;5092426;28;20415;-47
2022/09/20 12:16:42;;;;;;;6.28;2.08;;;25.60;74.50;;;;;;5091420;28;20063;-47
2022/09/20 12:19:20;;;;;;;6.03;1.58;;;24.80;71.60;;;;;;5098072;28;20126;-46
2022/09/20 12:21:59;;;;;;;5.75;1.55;;;25.60;68.70;;;;;;5077469;28;20391;-46
2022/09/20 12:24:38;;;;;;;7.78;2.05;;;25.00;66.90;;;;;;5096518;28;20108;-51
2022/09/20 12:27:26;;;;;;;5.10;1.17;;;24.30;68.70;;;;;;5096235;28;20376;-44
2022/09/20 12:30:03;;;;;;;3.75;1.08;;;23.60;71.50;;;;;;5095348;28;20046;-44
2022/09/20 12:32:37;;;;;;;5.07;1.58;;;23.00;73.90;;;;;;5093622;28;20123;-43
2022/09/20 12:35:52;;;;;;;7.80;2.58;;;22.00;74.70;;;;;;5078794;28;20625;-45
2022/09/20 12:38:30;;;;;;;3.40;0.90;;;21.20;77.20;;;;;;5079442;28;20067;-41
2022/09/20 12:41:01;;;;;;;7.82;5.95;;;20.40;79.10;;;;;;5092815;28;20059;-43
2022/09/20 12:43:30;;;;;;;13.32;10.15;;;19.90;80.00;;;;;;5098577;28;20051;-46
2022/09/20 12:45:57;;;;;;;17.02;13.75;;;19.40;81.30;;;;;;5102243;28;20047;-41
2022/09/20 12:48:24;;;;;;;3.70;1.20;;;19.00;82.80;;;;;;5099147;28;20035;-49
2022/09/20 12:54:05;;;;;;;9.77;6.70;;;18.80;87.70;;;;;;5100102;28;20178;-51
2022/09/20 12:56:36;;;;;;;6.70;2.63;;;18.60;86.80;;;;;;5098086;28;20077;-49
2022/09/20 12:59:04;;;;;;;5.88;1.10;;;18.40;89.30;;;;;;5097752;28;20542;-48
2022/09/20 13:01:35;;;;;;;6.38;1.35;;;18.50;90.60;;;;;;5096621;28;20048;-48
2022/09/20 13:04:40;;;;;;;3.22;1.13;;;18.50;90.80;;;;;;5098755;28;20044;-47
2022/09/20 13:07:40;;;;;;;4.25;1.10;;;18.50;90.80;;;;;;5090461;28;20569;-42
2022/09/20 13:10:24;;;;;;;6.93;1.17;;;18.70;91.50;;;;;;5112329;27;20046;-41
2022/09/20 13:12:56;;;;;;;7.32;1.77;;;19.30;90.80;;;;;;5098259;28;20047;-45
2022/09/20 13:15:23;;;;;;;6.57;1.35;;;19.40;90.30;;;;;;5078844;28;20056;-43
2022/09/20 13:17:53;;;;;;;7.78;2.08;;;20.60;86.60;;;;;;5065025;28;20035;-44
2022/09/20 13:20:33;;;;;;;4.90;1.27;;;22.30;82.10;;;;;;5076781;28;20047;-43
2022/09/20 13:23:03;;;;;;;6.68;0.98;;;23.30;73.70;;;;;;5093024;28;20047;-45
2022/09/20 13:25:29;;;;;;;6.07;1.33;;;23.90;71.70;;;;;;5095570;28;20270;-44
2022/09/20 13:28:27;;;;;;;5.57;1.05;;;24.80;68.20;;;;;;5076898;28;20392;-41
2022/09/20 13:31:22;;;;;;;4.63;1.42;;;25.70;61.00;;;;;;5088867;28;20048;-43
2022/09/20 13:33:49;;;;;;;5.97;0.95;;;26.20;57.90;;;;;;5096290;28;20748;-42
2022/09/20 13:36:24;;;;;;;4.47;1.15;;;26.90;59.90;;;;;;5061584;28;20050;-43
2022/09/20 13:38:51;;;;;;;5.88;1.27;;;26.60;56.20;;;;;;5090755;28;20051;-41
2022/09/20 13:41:17;;;;;;;135.70;121.88;;;25.20;58.30;;;;;;5088196;28;20075;-41
2022/09/20 13:43:46;;;;;;;16.05;11.63;;;23.80;59.20;;;;;;5092451;28;20036;-40
2022/09/20 13:46:22;;;;;;;10.68;5.50;;;22.60;60.50;;;;;;5044396;28;20047;-40
2022/09/20 13:48:57;;;;;;;5.10;1.88;;;22.20;59.90;;;;;;5092878;28;20043;-40
2022/09/20 13:51:25;;;;;;;5.13;2.13;;;21.60;62.70;;;;;;5063978;28;20039;-41
2022/09/20 13:53:52;;;;;;;22.25;16.20;;;21.10;63.90;;;;;;5091169;27;20398;-39
2022/09/20 13:56:28;;;;;;;4.15;1.15;;;20.60;63.70;;;;;;5092562;28;20047;-40
2022/09/20 13:58:57;;;;;;;6.85;3.88;;;20.90;65.90;;;;;;5096742;28;20118;-41
2022/09/20 14:01:50;;;;;;;11.38;6.88;;;21.60;64.20;;;;;;5096742;28;20036;-40
2022/09/20 14:04:22;;;;;;;4.82;1.15;;;23.20;61.60;;;;;;5106115;27;20109;-41
2022/09/20 14:06:51;;;;;;;5.85;2.08;;;24.20;60.40;;;;;;5096682;28;20039;-42
2022/09/20 14:09:32;;;;;;;7.63;2.67;;;25.00;59.20;;;;;;5095006;28;20550;-40